Time;durP1;ratioP1;P1;durP2;ratioP2;P2;SDS_P1;SDS_P2;PMS_P1;PMS_P2;Temp;Humidity;BMP_temperature;BMP_pressure;BME280_temperature;BME280_humidity;BME280_pressure;Samples;Min_cycle;Max_cycle;Signal;HPM_P1;HPM_P2
2022/12/21 00:01:59;;;;;;;;;;;11.90;99.90;;;;;;7339343;19;112103;-89
2022/12/21 00:04:26;;;;;;;;;;;11.80;99.90;;;;;;7338175;19;108486;-89
2022/12/21 00:06:53;;;;;;;;;;;11.80;99.90;;;;;;7338966;19;109155;-89
2022/12/21 00:09:20;;;;;;;;;;;11.80;99.90;;;;;;7338899;19;110363;-89
2022/12/21 00:11:47;;;;;;;;;;;11.70;99.90;;;;;;7345477;19;108717;-89
2022/12/21 00:14:14;;;;;;;;;;;11.70;99.90;;;;;;7337945;19;110013;-88
2022/12/21 00:16:41;;;;;;;;;;;11.70;99.90;;;;;;7340058;19;108858;-88
2022/12/21 00:19:11;;;;;;;;;;;11.70;99.90;;;;;;7338075;19;110801;-89
2022/12/21 00:21:38;;;;;;;;;;;11.70;99.90;;;;;;7342103;19;109620;-88
2022/12/21 00:24:05;;;;;;;;;;;11.70;99.90;;;;;;7344107;19;109471;-88
2022/12/21 00:26:34;;;;;;;;;;;11.70;99.90;;;;;;7343955;19;108345;-88
2022/12/21 00:29:01;;;;;;;;;;;11.70;99.90;;;;;;7343401;19;108259;-87
2022/12/21 00:31:30;;;;;;;;;;;11.70;99.90;;;;;;7341955;19;109184;-88
2022/12/21 00:33:57;;;;;;;;;;;11.60;99.90;;;;;;7349098;19;108871;-89
2022/12/21 00:36:25;;;;;;;;;;;11.60;99.90;;;;;;7341447;19;108703;-89
2022/12/21 00:38:52;;;;;;;;;;;11.60;99.90;;;;;;7343906;19;109047;-88
2022/12/21 00:41:20;;;;;;;;;;;11.60;99.90;;;;;;7342324;19;111635;-88
2022/12/21 00:43:48;;;;;;;;;;;11.60;99.90;;;;;;7343526;19;109045;-88
2022/12/21 00:46:29;;;;;;;;;;;11.60;99.90;;;;;;7341664;19;109077;-88
2022/12/21 00:48:57;;;;;;;;;;;11.40;99.90;;;;;;7342356;19;110478;-88
2022/12/21 00:51:25;;;;;;;;;;;11.30;99.90;;;;;;7342326;19;108299;-88
2022/12/21 00:53:53;;;;;;;;;;;11.30;99.90;;;;;;7345194;19;112136;-89
2022/12/21 00:56:20;;;;;;;;;;;11.30;99.90;;;;;;7347593;19;110773;-89
2022/12/21 00:58:48;;;;;;;;;;;11.30;99.90;;;;;;7342624;19;109707;-89
2022/12/21 01:01:19;;;;;;;;;;;11.30;99.90;;;;;;7341083;19;109594;-88
2022/12/21 01:03:46;;;;;;;;;;;11.40;99.90;;;;;;7342959;19;109033;-89
2022/12/21 01:06:21;;;;;;;;;;;11.30;99.90;;;;;;7341446;19;109216;-88
2022/12/21 01:08:48;;;;;;;;;;;11.30;99.90;;;;;;7340931;19;109262;-87
2022/12/21 01:11:16;;;;;;;;;;;11.30;99.90;;;;;;7343469;19;109046;-88
2022/12/21 01:13:43;;;;;;;;;;;11.30;99.90;;;;;;7342144;19;109384;-89
2022/12/21 01:16:15;;;;;;;;;;;11.30;99.90;;;;;;7341228;19;109806;-89
2022/12/21 01:18:42;;;;;;;;;;;11.30;99.90;;;;;;7346578;19;108329;-87
2022/12/21 01:21:16;;;;;;;;;;;11.30;99.90;;;;;;7340280;19;108988;-89
2022/12/21 01:23:43;;;;;;;;;;;11.20;99.90;;;;;;7344624;19;108546;-88
2022/12/21 01:26:11;;;;;;;;;;;11.20;99.90;;;;;;7341582;19;110322;-88
2022/12/21 01:28:38;;;;;;;;;;;11.20;99.90;;;;;;7341216;19;110405;-87
2022/12/21 01:31:05;;;;;;;;;;;11.20;99.90;;;;;;7339485;19;110116;-87
2022/12/21 01:33:32;;;;;;;;;;;11.20;99.90;;;;;;7338917;19;109089;-88
2022/12/21 01:36:17;;;;;;;;;;;11.10;99.90;;;;;;7341337;19;110387;-88
2022/12/21 01:38:45;;;;;;;;;;;11.10;99.90;;;;;;7345178;19;108467;-88
2022/12/21 01:41:23;;;;;;;;;;;11.10;99.90;;;;;;7338665;19;110271;-88
2022/12/21 01:43:51;;;;;;;;;;;11.10;99.90;;;;;;7339659;19;108579;-88
2022/12/21 01:46:21;;;;;;;;;;;11.10;99.90;;;;;;7339737;19;108931;-88
2022/12/21 01:48:51;;;;;;;;;;;11.10;99.90;;;;;;7340508;19;109971;-88
2022/12/21 01:51:18;;;;;;;;;;;11.10;99.90;;;;;;7341213;19;108851;-87
2022/12/21 01:53:52;;;;;;;;;;;11.10;99.90;;;;;;7342213;19;109088;-88
2022/12/21 01:56:21;;;;;;;;;;;11.00;99.90;;;;;;7339385;19;110383;-88
2022/12/21 01:58:48;;;;;;;;;;;11.00;99.90;;;;;;7339628;19;108491;-88
2022/12/21 02:01:16;;;;;;;;;;;11.00;99.90;;;;;;7344359;19;109484;-88
2022/12/21 02:03:45;;;;;;;;;;;11.00;99.90;;;;;;7343741;19;108520;-89
2022/12/21 02:06:18;;;;;;;;;;;11.00;99.90;;;;;;7339486;19;111552;-88
2022/12/21 02:08:46;;;;;;;;;;;11.00;99.90;;;;;;7339418;19;110774;-89
2022/12/21 02:11:13;;;;;;;;;;;11.00;99.90;;;;;;7340365;19;108939;-88
2022/12/21 02:13:41;;;;;;;;;;;11.00;99.90;;;;;;7341799;19;112253;-88
2022/12/21 02:16:26;;;;;;;;;;;10.90;99.90;;;;;;7341300;19;110034;-89
2022/12/21 02:19:22;;;;;;;;;;;10.90;99.90;;;;;;7340833;19;108444;-88
2022/12/21 02:22:15;;;;;;;;;;;10.90;99.90;;;;;;7336119;19;109629;-88
2022/12/21 02:25:01;;;;;;;;;;;10.80;99.90;;;;;;7341144;19;109647;-88
2022/12/21 02:27:28;;;;;;;;;;;10.80;99.90;;;;;;7334731;19;108743;-88
2022/12/21 02:29:55;;;;;;;;;;;10.90;99.90;;;;;;7335024;19;109312;-89
2022/12/21 02:33:00;;;;;;;;;;;10.90;99.90;;;;;;7335859;19;108673;-88
2022/12/21 02:35:33;;;;;;;;;;;10.80;99.90;;;;;;7336292;19;111725;-88
2022/12/21 02:38:20;;;;;;;;;;;10.90;99.90;;;;;;7335696;19;110852;-88
2022/12/21 02:40:53;;;;;;;;;;;10.90;99.90;;;;;;7336073;19;108669;-88
2022/12/21 02:46:14;;;;;;;;;;;10.80;99.90;;;;;;7335928;19;110886;-88
2022/12/21 02:48:49;;;;;;;;;;;10.80;99.90;;;;;;7343047;19;109777;-88
2022/12/21 02:51:20;;;;;;;;;;;10.70;99.90;;;;;;7333632;19;110507;-88
2022/12/21 02:53:47;;;;;;;;;;;10.70;99.90;;;;;;7336708;19;108736;-87
2022/12/21 02:56:15;;;;;;;;;;;10.70;99.90;;;;;;7334908;19;109893;-89
2022/12/21 02:58:42;;;;;;;;;;;10.60;99.90;;;;;;7334866;19;112357;-88
2022/12/21 03:01:09;;;;;;;;;;;10.60;99.90;;;;;;7335538;19;109238;-88
2022/12/21 03:03:48;;;;;;;;;;;10.60;99.90;;;;;;7336552;19;112213;-88
2022/12/21 03:06:28;;;;;;;;;;;10.60;99.90;;;;;;7335813;19;112421;-88
2022/12/21 03:08:55;;;;;;;;;;;10.60;99.90;;;;;;7339649;19;108631;-88
2022/12/21 03:11:25;;;;;;;;;;;10.60;99.90;;;;;;7345336;19;108436;-88
2022/12/21 03:14:01;;;;;;;;;;;10.60;99.90;;;;;;7336948;19;108920;-87
2022/12/21 03:16:57;;;;;;;;;;;10.60;99.90;;;;;;7339523;19;111736;-88
2022/12/21 03:19:31;;;;;;;;;;;10.60;99.90;;;;;;7336693;19;112454;-86
2022/12/21 03:22:04;;;;;;;;;;;10.50;99.90;;;;;;7335926;19;108863;-88
2022/12/21 03:24:34;;;;;;;;;;;10.50;99.90;;;;;;7337501;19;109130;-88
2022/12/21 03:27:04;;;;;;;;;;;10.50;99.90;;;;;;7336718;19;112917;-88
2022/12/21 03:29:36;;;;;;;;;;;10.50;99.90;;;;;;7337903;19;108498;-88
2022/12/21 03:32:11;;;;;;;;;;;10.50;99.90;;;;;;7347313;19;108276;-88
2022/12/21 03:34:40;;;;;;;;;;;10.50;99.90;;;;;;7344949;19;108835;-88
2022/12/21 03:37:09;;;;;;;;;;;10.40;99.90;;;;;;7343882;19;109102;-88
2022/12/21 03:39:42;;;;;;;;;;;10.40;99.90;;;;;;7345103;19;110775;-88
2022/12/21 03:42:09;;;;;;;;;;;10.40;99.90;;;;;;7344028;19;109943;-89
2022/12/21 03:44:39;;;;;;;;;;;10.40;99.90;;;;;;7344496;19;109074;-88
2022/12/21 03:47:12;;;;;;;;;;;10.40;99.90;;;;;;7344103;19;110025;-89
2022/12/21 03:49:41;;;;;;;;;;;10.40;99.90;;;;;;7343469;19;108438;-88
2022/12/21 03:52:10;;;;;;;;;;;10.40;99.90;;;;;;7346148;19;109636;-87
2022/12/21 03:54:41;;;;;;;;;;;10.30;99.90;;;;;;7349905;19;111733;-87
2022/12/21 03:57:09;;;;;;;;;;;10.30;99.90;;;;;;7343077;19;112044;-88
2022/12/21 03:59:38;;;;;;;;;;;10.30;99.90;;;;;;7345259;19;113411;-87
2022/12/21 04:02:11;;;;;;;;;;;10.30;99.90;;;;;;7343454;19;108503;-88
2022/12/21 04:04:48;;;;;;;;;;;10.30;99.90;;;;;;7344841;19;110552;-87
2022/12/21 04:07:17;;;;;;;;;;;10.20;99.90;;;;;;7343774;19;109535;-88
2022/12/21 04:09:44;;;;;;;;;;;10.20;99.90;;;;;;7345777;19;108427;-87
2022/12/21 04:14:57;;;;;;;;;;;10.20;99.90;;;;;;7344788;19;109556;-86
2022/12/21 04:17:24;;;;;;;;;;;10.10;99.90;;;;;;7349857;19;108807;-87
2022/12/21 04:20:02;;;;;;;;;;;10.20;99.90;;;;;;7345633;19;110694;-87
2022/12/21 04:28:08;;;;;;;;;;;10.20;99.90;;;;;;7343099;19;109300;-88
2022/12/21 04:30:55;;;;;;;;;;;10.20;99.90;;;;;;7344292;19;109378;-87
2022/12/21 04:33:23;;;;;;;;;;;10.10;99.90;;;;;;7342729;19;110281;-87
2022/12/21 04:38:37;;;;;;;;;;;10.10;99.90;;;;;;7346378;19;108733;-88
2022/12/21 04:41:04;;;;;;;;;;;10.10;99.90;;;;;;7345852;19;108819;-88
2022/12/21 04:43:31;;;;;;;;;;;10.10;99.90;;;;;;7340966;19;111126;-88
2022/12/21 04:45:59;;;;;;;;;;;10.00;99.90;;;;;;7343063;19;109768;-88
2022/12/21 04:48:26;;;;;;;;;;;10.00;99.90;;;;;;7344393;19;112103;-87
2022/12/21 04:50:53;;;;;;;;;;;10.00;99.90;;;;;;7341508;19;108499;-88
2022/12/21 04:53:20;;;;;;;;;;;10.00;99.90;;;;;;7342475;19;110105;-88
2022/12/21 04:55:47;;;;;;;;;;;10.00;99.90;;;;;;7342855;19;112175;-88
2022/12/21 04:58:14;;;;;;;;;;;10.00;99.90;;;;;;7342896;19;111000;-89
2022/12/21 05:00:41;;;;;;;;;;;10.00;99.90;;;;;;7343613;19;108392;-87
2022/12/21 05:03:08;;;;;;;;;;;10.00;99.90;;;;;;7347832;19;110000;-88
2022/12/21 05:05:35;;;;;;;;;;;10.00;99.90;;;;;;7345114;19;109223;-88
2022/12/21 05:08:02;;;;;;;;;;;9.90;99.90;;;;;;7343878;19;110740;-88
2022/12/21 05:10:29;;;;;;;;;;;10.00;99.90;;;;;;7343879;19;111683;-88
2022/12/21 05:12:56;;;;;;;;;;;9.90;99.90;;;;;;7340909;19;108684;-87
2022/12/21 05:15:23;;;;;;;;;;;9.90;99.90;;;;;;7339503;19;109848;-88
2022/12/21 05:17:50;;;;;;;;;;;9.90;99.90;;;;;;7340350;19;108611;-88
2022/12/21 05:20:17;;;;;;;;;;;9.90;99.90;;;;;;7342755;19;108927;-87
2022/12/21 05:22:46;;;;;;;;;;;9.90;99.90;;;;;;7342219;19;111286;-86
2022/12/21 05:25:12;;;;;;;;;;;9.90;99.90;;;;;;7347430;19;108359;-87
2022/12/21 05:27:39;;;;;;;;;;;9.90;99.90;;;;;;7341475;19;108900;-88
2022/12/21 05:30:07;;;;;;;;;;;9.90;99.90;;;;;;7343339;19;108360;-88
2022/12/21 05:32:34;;;;;;;;;;;9.90;99.90;;;;;;7339873;19;110045;-87
2022/12/21 05:35:01;;;;;;;;;;;9.90;99.90;;;;;;7339711;19;110412;-88
2022/12/21 05:37:28;;;;;;;;;;;9.80;99.90;;;;;;7342985;19;109019;-88
2022/12/21 05:39:55;;;;;;;;;;;9.80;99.90;;;;;;7343182;19;109401;-88
2022/12/21 05:42:22;;;;;;;;;;;9.80;99.90;;;;;;7339808;19;110006;-87
2022/12/21 05:44:49;;;;;;;;;;;9.80;99.90;;;;;;7348618;19;108526;-88
2022/12/21 05:47:16;;;;;;;;;;;9.80;99.90;;;;;;7342080;19;113101;-87
2022/12/21 05:49:43;;;;;;;;;;;9.80;99.90;;;;;;7342202;19;108400;-88
2022/12/21 05:52:10;;;;;;;;;;;9.80;99.90;;;;;;7342391;19;109618;-88
2022/12/21 05:54:37;;;;;;;;;;;9.80;99.90;;;;;;7340448;19;110489;-88
2022/12/21 05:57:05;;;;;;;;;;;9.80;99.90;;;;;;7342151;19;108408;-88
2022/12/21 05:59:32;;;;;;;;;;;9.70;99.90;;;;;;7339386;19;110370;-88
2022/12/21 06:01:59;;;;;;;;;;;9.80;99.90;;;;;;7338868;19;113016;-87
2022/12/21 06:04:26;;;;;;;;;;;9.70;99.90;;;;;;7338893;19;108695;-87
2022/12/21 06:06:54;;;;;;;;;;;9.70;99.90;;;;;;7345302;19;108887;-87
2022/12/21 06:09:23;;;;;;;;;;;9.70;99.90;;;;;;7339744;19;108737;-86
2022/12/21 06:11:49;;;;;;;;;;;9.80;99.90;;;;;;7339846;19;109256;-87
2022/12/21 06:14:16;;;;;;;;;;;9.70;99.90;;;;;;7340832;19;110093;-88
2022/12/21 06:16:43;;;;;;;;;;;9.70;99.90;;;;;;7341215;19;109010;-87
2022/12/21 06:19:10;;;;;;;;;;;9.70;99.90;;;;;;7341199;19;108798;-89
2022/12/21 06:21:37;;;;;;;;;;;9.70;99.90;;;;;;7339815;19;111110;-86
2022/12/21 06:24:04;;;;;;;;;;;9.70;99.90;;;;;;7341740;19;108323;-88
2022/12/21 06:26:31;;;;;;;;;;;9.70;99.90;;;;;;7341149;19;112664;-88
2022/12/21 06:28:58;;;;;;;;;;;9.70;99.90;;;;;;7346139;19;110279;-88
2022/12/21 06:31:25;;;;;;;;;;;9.70;99.90;;;;;;7338656;19;109639;-88
2022/12/21 06:33:53;;;;;;;;;;;9.70;99.90;;;;;;7340655;19;110251;-88
2022/12/21 06:36:20;;;;;;;;;;;9.70;99.90;;;;;;7340441;19;109816;-88
2022/12/21 06:38:47;;;;;;;;;;;9.70;99.90;;;;;;7342295;19;108481;-89
2022/12/21 06:41:15;;;;;;;;;;;9.70;99.90;;;;;;7338357;19;110219;-89
2022/12/21 06:43:43;;;;;;;;;;;9.70;99.90;;;;;;7341374;19;109831;-88
2022/12/21 06:46:11;;;;;;;;;;;9.70;99.90;;;;;;7340605;19;109313;-89
2022/12/21 06:48:39;;;;;;;;;;;9.60;99.90;;;;;;7339421;19;109931;-88
2022/12/21 06:51:07;;;;;;;;;;;9.60;99.90;;;;;;7345877;19;108582;-89
2022/12/21 06:53:36;;;;;;;;;;;9.60;99.90;;;;;;7342737;19;110369;-89
2022/12/21 06:56:04;;;;;;;;;;;9.60;99.90;;;;;;7338579;19;108705;-89
2022/12/21 06:58:32;;;;;;;;;;;9.60;99.90;;;;;;7337260;19;109044;-88
2022/12/21 07:01:07;;;;;;;;;;;9.60;99.90;;;;;;7338616;19;109561;-88
2022/12/21 07:03:34;;;;;;;;;;;9.60;99.90;;;;;;7339033;19;108530;-88
2022/12/21 07:06:10;;;;;;;;;;;9.60;99.90;;;;;;7344891;19;110032;-90
2022/12/21 07:08:37;;;;;;;;;;;9.60;99.90;;;;;;7346437;19;110168;-89
2022/12/21 07:11:05;;;;;;;;;;;9.60;99.90;;;;;;7347809;19;108346;-89
2022/12/21 07:13:34;;;;;;;;;;;9.60;99.90;;;;;;7352556;19;110217;-89
2022/12/21 07:16:01;;;;;;;;;;;9.60;99.90;;;;;;7348118;19;108780;-89
2022/12/21 07:18:28;;;;;;;;;;;9.60;99.90;;;;;;7347676;19;109080;-88
2022/12/21 07:21:02;;;;;;;;;;;9.60;99.90;;;;;;7346631;19;109940;-89
2022/12/21 07:23:29;;;;;;;;;;;9.60;99.90;;;;;;7345095;19;108589;-88
2022/12/21 07:25:56;;;;;;;;;;;9.60;99.90;;;;;;7346192;19;111471;-88
2022/12/21 07:28:30;;;;;;;;;;;9.60;99.90;;;;;;7343816;19;109255;-89
2022/12/21 07:31:17;;;;;;;;;;;9.60;99.90;;;;;;7346867;19;108425;-90
2022/12/21 07:33:45;;;;;;;;;;;9.60;99.90;;;;;;7347807;19;109758;-89
2022/12/21 07:36:12;;;;;;;;;;;9.60;99.90;;;;;;7351601;19;111807;-89
2022/12/21 07:38:40;;;;;;;;;;;9.60;99.90;;;;;;7346050;19;111859;-89
2022/12/21 07:41:08;;;;;;;;;;;9.60;99.90;;;;;;7346772;19;110694;-89
2022/12/21 07:43:36;;;;;;;;;;;9.60;99.90;;;;;;7347514;19;108858;-91
2022/12/21 07:46:03;;;;;;;;;;;9.60;99.90;;;;;;7349002;19;109445;-92
2022/12/21 07:48:30;;;;;;;;;;;9.60;99.90;;;;;;7351788;19;112784;-91
2022/12/21 07:50:57;;;;;;;;;;;9.60;99.90;;;;;;7350042;19;108565;-92
2022/12/21 07:53:24;;;;;;;;;;;9.60;99.90;;;;;;7349407;19;109873;-91
2022/12/21 07:55:52;;;;;;;;;;;9.60;99.90;;;;;;7353049;19;109428;-91
2022/12/21 07:58:19;;;;;;;;;;;9.60;99.90;;;;;;7348232;19;109669;-91
2022/12/21 08:00:46;;;;;;;;;;;9.60;99.90;;;;;;7349523;19;110198;-91
2022/12/21 08:03:13;;;;;;;;;;;9.60;99.90;;;;;;7350437;19;108434;-91
2022/12/21 08:05:40;;;;;;;;;;;9.60;99.90;;;;;;7349304;19;108430;-90
2022/12/21 08:08:07;;;;;;;;;;;9.60;99.90;;;;;;7352385;19;110906;-90
2022/12/21 08:10:34;;;;;;;;;;;9.60;99.90;;;;;;7349195;19;108933;-90
2022/12/21 08:13:01;;;;;;;;;;;9.60;99.90;;;;;;7349246;19;112934;-90
2022/12/21 08:15:28;;;;;;;;;;;9.60;99.90;;;;;;7348744;19;109769;-91
2022/12/21 08:17:55;;;;;;;;;;;9.60;99.90;;;;;;7355616;19;109986;-91
2022/12/21 08:20:22;;;;;;;;;;;9.60;99.90;;;;;;7350048;19;110562;-93
2022/12/21 08:22:49;;;;;;;;;;;9.60;99.90;;;;;;7350143;19;108885;-92
2022/12/21 08:25:16;;;;;;;;;;;9.60;99.90;;;;;;7349197;19;109684;-92
2022/12/21 08:27:43;;;;;;;;;;;9.60;99.90;;;;;;7347547;19;111218;-91
2022/12/21 08:30:10;;;;;;;;;;;9.60;99.90;;;;;;7349869;19;108543;-91
2022/12/21 08:32:38;;;;;;;;;;;9.60;99.90;;;;;;7347864;19;112001;-91
2022/12/21 08:35:05;;;;;;;;;;;9.60;99.90;;;;;;7346824;19;110274;-91
2022/12/21 08:37:32;;;;;;;;;;;9.60;99.90;;;;;;7345860;19;108527;-91
2022/12/21 08:39:58;;;;;;;;;;;9.60;99.90;;;;;;7353855;19;112269;-92
2022/12/21 08:42:25;;;;;;;;;;;9.60;99.90;;;;;;7348086;19;108549;-90
2022/12/21 08:44:59;;;;;;;;;;;9.70;99.90;;;;;;7346482;19;109697;-91
2022/12/21 08:47:26;;;;;;;;;;;9.60;99.90;;;;;;7346608;19;110231;-88
2022/12/21 08:49:53;;;;;;;;;;;9.50;99.90;;;;;;7347055;19;108496;-91
2022/12/21 08:52:20;;;;;;;;;;;9.50;99.90;;;;;;7345654;19;109147;-89
2022/12/21 08:54:47;;;;;;;;;;;9.40;99.90;;;;;;7346766;19;110069;-91
2022/12/21 08:57:13;;;;;;;;;;;9.40;99.90;;;;;;7344723;19;109335;-90
2022/12/21 08:59:40;;;;;;;;;;;9.40;99.90;;;;;;7349162;19;108397;-90
2022/12/21 09:02:14;;;;;;;;;;;9.50;99.90;;;;;;7352148;19;109504;-90
2022/12/21 09:04:41;;;;;;;;;;;9.50;99.90;;;;;;7345317;19;109075;-90
2022/12/21 09:07:08;;;;;;;;;;;9.40;99.90;;;;;;7345543;19;110139;-90
2022/12/21 09:09:35;;;;;;;;;;;9.50;99.90;;;;;;7344115;19;108447;-90
2022/12/21 09:12:02;;;;;;;;;;;9.50;99.90;;;;;;7347854;19;109189;-91
2022/12/21 09:14:29;;;;;;;;;;;9.50;99.90;;;;;;7344572;19;109457;-91
2022/12/21 09:16:56;;;;;;;;;;;9.50;99.90;;;;;;7344075;19;108881;-91
2022/12/21 09:19:24;;;;;;;;;;;9.50;99.90;;;;;;7345032;19;110000;-91
2022/12/21 09:21:51;;;;;;;;;;;9.50;99.90;;;;;;7346204;19;110468;-90
2022/12/21 09:24:18;;;;;;;;;;;9.60;99.90;;;;;;7352823;19;108126;-91
2022/12/21 09:26:45;;;;;;;;;;;9.60;99.90;;;;;;7345665;19;113527;-90
2022/12/21 09:29:12;;;;;;;;;;;9.60;99.90;;;;;;7345092;19;108833;-91
2022/12/21 09:31:40;;;;;;;;;;;9.60;99.90;;;;;;7346316;19;109152;-90
2022/12/21 09:34:07;;;;;;;;;;;9.60;99.90;;;;;;7346791;19;110002;-92
2022/12/21 09:36:34;;;;;;;;;;;9.60;99.90;;;;;;7349872;19;109160;-93
2022/12/21 09:39:21;;;;;;;;;;;9.60;99.90;;;;;;7348817;19;111170;-91
2022/12/21 09:41:59;;;;;;;;;;;9.60;99.90;;;;;;7343069;19;110310;-91
2022/12/21 09:44:29;;;;;;;;;;;9.70;99.90;;;;;;7346745;19;108530;-91
2022/12/21 09:46:58;;;;;;;;;;;9.70;99.90;;;;;;7351051;19;109247;-91
2022/12/21 09:49:43;;;;;;;;;;;9.70;99.90;;;;;;7346901;19;109717;-91
2022/12/21 09:52:17;;;;;;;;;;;9.70;99.90;;;;;;7344683;19;109460;-93
2022/12/21 09:54:47;;;;;;;;;;;9.80;99.90;;;;;;7346378;19;110285;-90
2022/12/21 09:57:14;;;;;;;;;;;9.80;99.90;;;;;;7347223;19;108332;-91
2022/12/21 09:59:41;;;;;;;;;;;9.80;99.90;;;;;;7345235;19;109480;-91
2022/12/21 10:02:07;;;;;;;;;;;9.80;99.90;;;;;;7346693;19;110170;-91
2022/12/21 10:04:44;;;;;;;;;;;9.90;99.90;;;;;;7347484;19;109464;-92
2022/12/21 10:07:36;;;;;;;;;;;9.90;99.90;;;;;;7352566;19;111066;-91
2022/12/21 10:10:14;;;;;;;;;;;10.00;99.90;;;;;;7348282;19;109192;-91
2022/12/21 10:12:50;;;;;;;;;;;10.00;99.90;;;;;;7348681;19;109357;-92
2022/12/21 10:15:23;;;;;;;;;;;10.00;99.90;;;;;;7346850;19;109304;-94
2022/12/21 10:18:14;;;;;;;;;;;10.10;99.90;;;;;;7349632;19;108274;-93
2022/12/21 10:20:50;;;;;;;;;;;10.10;99.90;;;;;;7346939;19;108566;-92
2022/12/21 10:23:20;;;;;;;;;;;10.10;99.90;;;;;;7345258;19;109099;-93
2022/12/21 10:25:49;;;;;;;;;;;10.20;99.90;;;;;;7347221;19;108478;-92
2022/12/21 10:28:44;;;;;;;;;;;10.20;99.90;;;;;;7348606;19;109199;-93
2022/12/21 10:31:34;;;;;;;;;;;10.20;99.90;;;;;;7354422;19;110572;-93
2022/12/21 10:34:01;;;;;;;;;;;10.30;99.90;;;;;;7347433;19;108490;-94
2022/12/21 10:36:34;;;;;;;;;;;10.30;99.90;;;;;;7348648;19;109233;-93
2022/12/21 10:39:01;;;;;;;;;;;10.30;99.90;;;;;;7351724;19;108473;-94
2022/12/21 10:41:38;;;;;;;;;;;10.40;99.90;;;;;;7353131;19;109480;-93
2022/12/21 10:44:09;;;;;;;;;;;10.40;99.90;;;;;;7353572;19;112060;-93
2022/12/21 10:46:37;;;;;;;;;;;10.50;99.90;;;;;;7356948;19;108945;-92
2022/12/21 10:49:22;;;;;;;;;;;10.50;99.90;;;;;;7355473;19;111158;-93
2022/12/21 10:51:49;;;;;;;;;;;10.60;99.90;;;;;;7356405;19;112478;-92
2022/12/21 10:54:23;;;;;;;;;;;10.60;99.90;;;;;;7359401;19;109739;-93
2022/12/21 10:56:51;;;;;;;;;;;10.70;99.90;;;;;;7353548;19;110524;-94
2022/12/21 10:59:18;;;;;;;;;;;10.60;99.90;;;;;;7356663;19;108988;-94
2022/12/21 11:01:45;;;;;;;;;;;10.60;99.90;;;;;;7356800;19;111180;-94
2022/12/21 11:04:14;;;;;;;;;;;10.70;99.90;;;;;;7355614;19;110218;-93
2022/12/21 11:06:54;;;;;;;;;;;10.70;99.90;;;;;;7357167;19;108187;-93
2022/12/21 11:09:28;;;;;;;;;;;10.70;99.90;;;;;;7356074;19;109135;-93
2022/12/21 11:11:55;;;;;;;;;;;10.70;99.90;;;;;;7353316;19;108923;-92
2022/12/21 11:14:23;;;;;;;;;;;10.70;99.90;;;;;;7353679;19;109649;-93
2022/12/21 11:16:50;;;;;;;;;;;10.70;99.90;;;;;;7359719;19;111461;-93
2022/12/21 11:19:18;;;;;;;;;;;10.70;99.90;;;;;;7355410;19;108373;-93
2022/12/21 11:21:52;;;;;;;;;;;10.70;99.90;;;;;;7353813;19;112298;-93
2022/12/21 11:24:28;;;;;;;;;;;10.60;99.90;;;;;;7350881;19;109536;-93
2022/12/21 11:27:00;;;;;;;;;;;10.60;99.90;;;;;;7352545;19;108387;-93
2022/12/21 11:29:29;;;;;;;;;;;10.60;99.90;;;;;;7354429;19;108591;-93
2022/12/21 11:32:02;;;;;;;;;;;10.60;99.90;;;;;;7355849;19;110736;-93
2022/12/21 11:34:36;;;;;;;;;;;10.60;99.90;;;;;;7351595;19;109758;-86
2022/12/21 11:37:21;;;;;;;;;;;10.60;99.90;;;;;;7349928;19;112206;-90
2022/12/21 11:39:48;;;;;;;;;;;10.50;99.90;;;;;;7351937;19;111607;-90
2022/12/21 11:42:19;;;;;;;;;;;10.50;99.90;;;;;;7348524;19;111256;-89
2022/12/21 11:44:47;;;;;;;;;;;10.50;99.90;;;;;;7350774;19;109932;-88
2022/12/21 11:47:33;;;;;;;;;;;10.50;99.90;;;;;;7348836;19;113013;-90
2022/12/21 11:50:15;;;;;;;;;;;10.50;99.90;;;;;;7350783;19;109360;-88
2022/12/21 11:52:52;;;;;;;;;;;10.50;99.90;;;;;;7346161;19;109224;-91
2022/12/21 11:55:34;;;;;;;;;;;10.50;99.90;;;;;;7349587;19;109176;-90
2022/12/21 11:58:04;;;;;;;;;;;10.50;99.90;;;;;;7348964;19;109194;-91
2022/12/21 12:00:36;;;;;;;;;;;10.50;99.90;;;;;;7348210;19;110330;-91
2022/12/21 12:03:42;;;;;;;;;;;10.50;99.90;;;;;;7354124;19;108603;-91
2022/12/21 12:06:08;;;;;;;;;;;10.40;99.90;;;;;;7350422;19;110531;-91
2022/12/21 12:08:35;;;;;;;;;;;10.40;99.90;;;;;;7354042;19;108506;-90
2022/12/21 12:11:02;;;;;;;;;;;10.40;99.90;;;;;;7349450;19;109585;-91
2022/12/21 12:13:35;;;;;;;;;;;10.40;99.90;;;;;;7349199;19;112828;-91
2022/12/21 12:16:02;;;;;;;;;;;10.40;99.90;;;;;;7352763;19;108294;-91
2022/12/21 12:18:44;;;;;;;;;;;10.40;99.90;;;;;;7350634;19;109112;-92
2022/12/21 12:21:30;;;;;;;;;;;10.40;99.90;;;;;;7351261;19;110421;-91
2022/12/21 12:24:29;;;;;;;;;;;10.40;99.90;;;;;;7351424;19;108548;-92
2022/12/21 12:26:59;;;;;;;;;;;10.40;99.90;;;;;;7340626;19;110342;-90
2022/12/21 12:29:32;;;;;;;;;;;10.40;99.90;;;;;;7340941;19;108574;-92
2022/12/21 12:32:01;;;;;;;;;;;10.40;99.90;;;;;;7338291;19;109643;-92
2022/12/21 12:34:40;;;;;;;;;;;10.40;99.90;;;;;;7339470;19;110455;-93
2022/12/21 12:37:10;;;;;;;;;;;10.50;99.90;;;;;;7342136;19;109223;-93
2022/12/21 12:39:42;;;;;;;;;;;10.50;99.90;;;;;;7340894;19;109522;-91
2022/12/21 12:42:17;;;;;;;;;;;10.50;99.90;;;;;;7337109;19;110463;-91
2022/12/21 12:44:50;;;;;;;;;;;10.50;99.90;;;;;;7337282;19;108713;-91
2022/12/21 12:47:41;;;;;;;;;;;10.50;99.90;;;;;;7345751;19;109435;-92
2022/12/21 12:50:27;;;;;;;;;;;10.50;99.90;;;;;;7340764;19;108740;-91
2022/12/21 12:53:01;;;;;;;;;;;10.50;99.90;;;;;;7337078;19;108894;-91
2022/12/21 12:55:33;;;;;;;;;;;10.50;99.90;;;;;;7336913;19;112927;-92
2022/12/21 12:58:03;;;;;;;;;;;10.60;99.90;;;;;;7338320;19;108995;-91
2022/12/21 13:00:37;;;;;;;;;;;10.50;99.90;;;;;;7339368;19;109561;-91
2022/12/21 13:03:08;;;;;;;;;;;10.50;99.90;;;;;;7339440;19;110573;-91
2022/12/21 13:05:35;;;;;;;;;;;10.60;99.90;;;;;;7342984;19;108688;-91
2022/12/21 13:08:20;;;;;;;;;;;10.60;99.90;;;;;;7341530;19;109485;-92
2022/12/21 13:11:03;;;;;;;;;;;10.60;99.90;;;;;;7348079;19;110063;-91
2022/12/21 13:13:43;;;;;;;;;;;10.60;99.90;;;;;;7337653;19;109302;-92
2022/12/21 13:16:15;;;;;;;;;;;10.60;99.90;;;;;;7338189;19;109431;-92
2022/12/21 13:18:47;;;;;;;;;;;10.60;99.90;;;;;;7337092;19;109088;-91
2022/12/21 13:21:15;;;;;;;;;;;10.70;99.90;;;;;;7338428;19;108900;-90
2022/12/21 13:24:03;;;;;;;;;;;10.70;99.90;;;;;;7335315;19;111887;-92
2022/12/21 13:26:33;;;;;;;;;;;10.70;99.90;;;;;;7341242;19;109035;-93
2022/12/21 13:29:09;;;;;;;;;;;10.70;99.90;;;;;;7345764;19;109147;-92
2022/12/21 13:31:48;;;;;;;;;;;10.80;99.90;;;;;;7340626;19;110198;-92
2022/12/21 13:34:17;;;;;;;;;;;10.70;99.90;;;;;;7343883;19;108878;-92
2022/12/21 13:36:44;;;;;;;;;;;10.80;99.90;;;;;;7338642;19;114247;-93
2022/12/21 13:39:19;;;;;;;;;;;10.70;99.90;;;;;;7339541;19;111274;-92
2022/12/21 13:41:54;;;;;;;;;;;10.70;99.90;;;;;;7342301;19;109185;-94
2022/12/21 13:44:43;;;;;;;;;;;10.70;99.90;;;;;;7336678;19;109538;-90
2022/12/21 13:47:11;;;;;;;;;;;10.70;99.90;;;;;;7337539;19;109021;-91
2022/12/21 13:49:46;;;;;;;;;;;10.70;99.90;;;;;;7341257;19;109252;-91
2022/12/21 13:52:18;;;;;;;;;;;10.60;99.90;;;;;;7342475;19;109217;-89
2022/12/21 13:54:45;;;;;;;;;;;10.60;99.90;;;;;;7339733;19;109473;-89
2022/12/21 13:57:18;;;;;;;;;;;10.50;99.90;;;;;;7344994;19;109229;-90
2022/12/21 13:59:45;;;;;;;;;;;10.50;99.90;;;;;;7341406;19;109186;-91
2022/12/21 14:02:22;;;;;;;;;;;10.40;99.90;;;;;;7340333;19;109623;-91
2022/12/21 14:04:56;;;;;;;;;;;10.50;99.90;;;;;;7341805;19;109897;-91
2022/12/21 14:07:23;;;;;;;;;;;10.40;99.90;;;;;;7345010;19;109270;-92
2022/12/21 14:09:56;;;;;;;;;;;10.40;99.90;;;;;;7342623;19;110563;-90
2022/12/21 14:13:01;;;;;;;;;;;10.30;99.90;;;;;;7342260;19;112245;-91
2022/12/21 14:15:59;;;;;;;;;;;10.30;99.90;;;;;;7343329;19;108651;-92
2022/12/21 14:18:34;;;;;;;;;;;10.30;99.90;;;;;;7351640;19;110262;-91
2022/12/21 14:21:25;;;;;;;;;;;10.30;99.90;;;;;;7342333;19;108493;-91
2022/12/21 14:23:53;;;;;;;;;;;10.30;99.90;;;;;;7342224;19;110790;-91
2022/12/21 14:26:46;;;;;;;;;;;10.30;99.90;;;;;;7340252;19;110510;-91
2022/12/21 14:29:30;;;;;;;;;;;10.30;99.90;;;;;;7338370;19;108548;-90
2022/12/21 14:31:57;;;;;;;;;;;10.30;99.90;;;;;;7339400;19;109286;-91
2022/12/21 14:34:26;;;;;;;;;;;10.30;99.90;;;;;;7339470;19;109977;-92
2022/12/21 14:37:09;;;;;;;;;;;10.20;99.90;;;;;;7342815;19;108806;-90
2022/12/21 14:39:40;;;;;;;;;;;10.30;99.90;;;;;;7339912;19;108784;-90
2022/12/21 14:42:26;;;;;;;;;;;10.30;99.90;;;;;;7344992;19;109255;-91
2022/12/21 14:45:11;;;;;;;;;;;10.30;99.90;;;;;;7338266;19;110949;-91
2022/12/21 14:47:39;;;;;;;;;;;10.30;99.90;;;;;;7342952;19;111074;-91